createdAt,value
2018-12-30T00:00:00.974Z,2
2018-12-30T00:00:50.429Z,2
2018-12-30T00:01:39.915Z,2
2018-12-30T00:02:31.778Z,2
2018-12-30T00:03:22.266Z,2
2018-12-30T00:04:11.821Z,2
2018-12-30T00:05:01.865Z,2
2018-12-30T00:05:51.925Z,2
2018-12-30T00:06:44.176Z,2.1
2018-12-30T00:07:30.314Z,2.1
2018-12-30T00:08:20.418Z,2
2018-12-30T00:09:11.922Z,2
2018-12-30T00:10:00.567Z,2
2018-12-30T00:10:50.593Z,2
2018-12-30T00:11:40.313Z,2
2018-12-30T00:12:30.936Z,2
2018-12-30T00:13:20.426Z,2
2018-12-30T00:14:11.069Z,2
2018-12-30T00:15:03.054Z,2
2018-12-30T00:33:07.872Z,1.8
2018-12-30T00:33:58.177Z,1.8
2018-12-30T00:34:48.527Z,1.8
2018-12-30T00:35:39.577Z,1.8
2018-12-30T00:36:28.034Z,1.8
2018-12-30T00:37:17.612Z,1.8
2018-12-30T00:38:08.932Z,1.8
2018-12-30T00:38:58.687Z,1.8
2018-12-30T00:39:48.784Z,1.8
2018-12-30T00:40:38.868Z,1.8
2018-12-30T00:41:28.926Z,1.8
2018-12-30T00:42:18.427Z,1.8
2018-12-30T00:43:09.266Z,1.7
2018-12-30T00:43:58.236Z,1.7
2018-12-30T00:44:49.409Z,1.7
2018-12-30T00:45:38.939Z,1.7
2018-12-30T00:46:28.969Z,1.7
2018-12-30T00:47:18.854Z,1.8
2018-12-30T00:48:11.196Z,1.8
2018-12-30T00:48:58.624Z,1.8
2018-12-30T00:49:49.181Z,1.8
2018-12-30T00:50:39.518Z,1.8
2018-12-30T00:51:29.036Z,1.8
2018-12-30T00:52:19.389Z,1.8
2018-12-30T00:53:08.941Z,1.8
2018-12-30T00:54:00.318Z,1.8
2018-12-30T00:54:49.303Z,1.8
2018-12-30T00:55:39.608Z,1.8
2018-12-30T00:56:30.186Z,1.8
2018-12-30T00:57:20.124Z,1.8
2018-12-30T00:58:09.749Z,1.8
2018-12-30T00:59:00.066Z,1.8
2018-12-30T00:59:49.927Z,1.8
2018-12-30T01:00:41.544Z,1.8
2018-12-30T01:01:30.018Z,1.8
2018-12-30T01:02:20.367Z,1.8
2018-12-30T01:03:10.109Z,1.8
2018-12-30T01:03:59.953Z,1.8
2018-12-30T01:04:50.220Z,1.8
2018-12-30T01:05:40.305Z,1.8
2018-12-30T01:06:30.671Z,1.8
2018-12-30T01:07:20.692Z,1.8
2018-12-30T01:08:10.208Z,1.8
2018-12-30T01:09:00.572Z,1.9
2018-12-30T01:09:51.045Z,1.9
2018-12-30T01:10:40.930Z,1.9
2018-12-30T01:11:30.702Z,1.9
2018-12-30T01:12:21.078Z,1.9
2018-12-30T01:13:12.437Z,1.9
2018-12-30T01:14:00.322Z,1.9
2018-12-30T01:14:51.310Z,1.9
2018-12-30T01:15:41.289Z,1.9
2018-12-30T01:16:30.734Z,1.9
2018-12-30T01:17:20.569Z,1.9
2018-12-30T01:18:11.152Z,1.9
2018-12-30T01:19:01.241Z,1.9
2018-12-30T01:19:51.622Z,1.9
2018-12-30T01:20:41.617Z,1.9
2018-12-30T01:21:31.699Z,1.9
2018-12-30T01:22:35.601Z,1.9
2018-12-30T01:23:11.849Z,2
2018-12-30T01:24:01.531Z,2
2018-12-30T01:24:51.614Z,2
2018-12-30T01:25:43.776Z,2
2018-12-30T01:26:31.680Z,2
2018-12-30T01:27:21.536Z,2
2018-12-30T01:28:12.138Z,2
2018-12-30T01:29:01.344Z,2
2018-12-30T01:29:51.701Z,2
2018-12-30T01:30:42.295Z,2
2018-12-30T01:31:32.065Z,1.9
2018-12-30T01:32:22.148Z,2
2018-12-30T01:33:11.138Z,1.9
2018-12-30T01:34:01.965Z,1.9
2018-12-30T01:34:52.548Z,1.9
2018-12-30T01:35:42.620Z,1.9
2018-12-30T01:36:32.423Z,1.9
2018-12-30T01:37:22.472Z,1.9
2018-12-30T01:38:13.073Z,1.9
2018-12-30T01:39:02.316Z,1.9
2018-12-30T01:39:52.909Z,1.9
2018-12-30T01:40:42.972Z,1.9
2018-12-30T01:41:34.471Z,1.9
2018-12-30T01:42:22.825Z,1.9
2018-12-30T01:43:12.887Z,1.9
2018-12-30T01:44:03.317Z,1.9
2018-12-30T01:44:53.317Z,1.9
2018-12-30T01:45:43.292Z,1.9
2018-12-30T01:46:33.887Z,1.9
2018-12-30T01:47:22.872Z,1.9
2018-12-30T01:48:12.662Z,1.9
2018-12-30T01:49:03.542Z,1.9
2018-12-30T01:49:53.304Z,1.9
2018-12-30T01:50:43.929Z,1.9
2018-12-30T01:51:36.218Z,1.9
2018-12-30T01:52:23.507Z,1.9
2018-12-30T01:53:13.562Z,1.9
2018-12-30T01:54:05.616Z,1.9
2018-12-30T01:54:53.674Z,1.9
2018-12-30T01:55:43.822Z,1.9
2018-12-30T01:56:33.774Z,1.9
2018-12-30T01:57:24.183Z,1.9
2018-12-30T01:58:13.641Z,1.9
2018-12-30T01:59:03.966Z,1.9
2018-12-30T01:59:54.303Z,1.9
2018-12-30T02:00:44.436Z,1.9
2018-12-30T02:01:33.873Z,1.9
2018-12-30T02:02:24.191Z,1.9
2018-12-30T02:03:14.558Z,1.9
2018-12-30T02:04:03.726Z,1.9
2018-12-30T02:04:54.412Z,1.9
2018-12-30T02:05:44.948Z,1.9
2018-12-30T02:06:35.296Z,1.9
2018-12-30T02:07:24.220Z,1.9
2018-12-30T02:08:14.543Z,1.9
2018-12-30T02:09:04.330Z,1.9
2018-12-30T02:09:56.243Z,1.9
2018-12-30T02:10:44.193Z,1.9
2018-12-30T02:11:35.100Z,1.9
2018-12-30T02:12:24.845Z,1.9
2018-12-30T02:13:15.335Z,1.9
2018-12-30T02:14:04.385Z,1.9
2018-12-30T02:14:55.008Z,2
2018-12-30T02:15:45.346Z,1.9
2018-12-30T02:16:35.380Z,1.9
2018-12-30T02:17:24.870Z,1.9
2018-12-30T02:18:15.535Z,1.9
2018-12-30T02:19:05.287Z,1.9
2018-12-30T02:19:55.442Z,1.9
2018-12-30T02:20:45.707Z,1.9
2018-12-30T02:21:43.467Z,1.9
2018-12-30T02:22:25.509Z,1.9
2018-12-30T02:23:15.036Z,2
2018-12-30T02:24:05.961Z,2
2018-12-30T02:24:55.964Z,2
2018-12-30T02:25:46.120Z,2
2018-12-30T02:26:36.107Z,2
2018-12-30T02:27:26.167Z,2
2018-12-30T02:28:16.201Z,2
2018-12-30T02:29:07.360Z,2
2018-12-30T02:29:56.314Z,2
2018-12-30T02:30:46.406Z,2.1
2018-12-30T02:31:36.184Z,2.1
2018-12-30T02:32:27.898Z,2
2018-12-30T02:33:16.794Z,2
2018-12-30T02:34:06.626Z,2.1
2018-12-30T02:34:56.754Z,2.1
2018-12-30T02:35:46.427Z,2.1
2018-12-30T02:36:36.833Z,2.1
2018-12-30T02:37:26.307Z,2.1
2018-12-30T02:38:16.875Z,2.1
2018-12-30T02:39:06.551Z,2.1
2018-12-30T02:39:56.746Z,2.1
2018-12-30T02:40:46.863Z,2.1
2018-12-30T02:41:36.556Z,2.1
2018-12-30T02:42:26.108Z,2.1
2018-12-30T02:43:17.478Z,2.1
2018-12-30T02:44:07.346Z,2.1
2018-12-30T02:44:57.513Z,2.1
2018-12-30T02:45:47.358Z,2.1
2018-12-30T02:46:37.475Z,2.1
2018-12-30T02:47:27.538Z,2.1
2018-12-30T02:48:18.630Z,2.1
2018-12-30T02:49:07.673Z,2
2018-12-30T02:49:57.433Z,2
2018-12-30T02:50:47.229Z,2
2018-12-30T02:51:39.683Z,2
2018-12-30T02:52:27.574Z,2
2018-12-30T02:53:17.923Z,1.9
2018-12-30T02:54:07.988Z,2
2018-12-30T02:54:58.743Z,1.9
2018-12-30T02:55:47.590Z,2
2018-12-30T02:56:38.218Z,2
2018-12-30T02:57:27.717Z,2
2018-12-30T02:58:17.713Z,2
2018-12-30T02:59:08.293Z,2
2018-12-30T02:59:58.393Z,1.9
2018-12-30T03:00:48.140Z,1.9
2018-12-30T03:01:38.757Z,1.9
2018-12-30T03:02:28.870Z,2
2018-12-30T03:03:18.592Z,2
2018-12-30T03:04:08.182Z,2
2018-12-30T03:04:58.695Z,2
2018-12-30T03:05:48.487Z,2.1
2018-12-30T03:06:38.622Z,2.1
2018-12-30T03:07:28.599Z,2.1
2018-12-30T03:08:18.412Z,2.1
2018-12-30T03:09:08.469Z,2.1
2018-12-30T03:09:58.811Z,2.1
2018-12-30T03:10:49.394Z,2.1
2018-12-30T03:11:39.182Z,2.1
2018-12-30T03:12:29.522Z,2.1
2018-12-30T03:13:19.084Z,2.1
2018-12-30T03:14:09.368Z,2.1
2018-12-30T03:14:58.581Z,2.1
2018-12-30T03:15:49.170Z,2.1
2018-12-30T03:16:39.197Z,2.1
2018-12-30T03:17:31.096Z,2.1
2018-12-30T03:18:19.362Z,2.1
2018-12-30T03:19:08.954Z,2.1
2018-12-30T03:19:59.457Z,2.1
2018-12-30T03:20:50.979Z,2.1
2018-12-30T03:21:39.587Z,2
2018-12-30T03:22:29.905Z,2
2018-12-30T03:23:19.386Z,2
2018-12-30T03:24:09.734Z,2
2018-12-30T03:25:00.044Z,2
2018-12-30T03:25:50.144Z,2
2018-12-30T03:26:40.187Z,1.9
2018-12-30T03:27:29.949Z,1.9
2018-12-30T03:28:20.006Z,1.9
2018-12-30T03:29:09.776Z,1.9
2018-12-30T03:30:00.411Z,1.9
2018-12-30T03:30:50.327Z,1.9
2018-12-30T03:31:40.032Z,1.9
2018-12-30T03:32:30.665Z,1.9
2018-12-30T03:33:20.657Z,1.9
2018-12-30T03:34:10.764Z,1.9
2018-12-30T03:35:00.726Z,1.9
2018-12-30T03:35:50.335Z,1.9
2018-12-30T03:36:40.868Z,1.9
2018-12-30T03:37:30.628Z,1.9
2018-12-30T03:38:20.403Z,1.9
2018-12-30T03:39:11.165Z,1.9
2018-12-30T03:40:01.133Z,1.9
2018-12-30T03:40:51.150Z,1.9
2018-12-30T03:41:41.195Z,1.9
2018-12-30T03:42:30.994Z,1.9
2018-12-30T03:43:21.037Z,1.9
2018-12-30T03:44:11.145Z,1.9
2018-12-30T03:45:00.588Z,1.9
2018-12-30T03:45:50.933Z,1.9
2018-12-30T03:46:40.732Z,1.9
2018-12-30T03:47:31.077Z,1.9
2018-12-30T03:48:21.929Z,1.9
2018-12-30T03:49:11.178Z,1.9
2018-12-30T03:50:01.958Z,1.9
2018-12-30T03:50:51.548Z,1.9
2018-12-30T03:51:41.617Z,1.9
2018-12-30T03:52:31.970Z,1.9
2018-12-30T03:53:21.729Z,1.9
2018-12-30T03:54:11.825Z,1.9
2018-12-30T03:55:01.867Z,1.9
2018-12-30T03:55:52.167Z,1.9
2018-12-30T03:56:42.232Z,1.9
2018-12-30T03:57:32.024Z,2.1
2018-12-30T03:58:21.820Z,2.1
2018-12-30T03:59:11.862Z,2.1
2018-12-30T04:00:01.749Z,2.1
2018-12-30T04:00:52.525Z,2
2018-12-30T04:01:42.582Z,1.9
2018-12-30T04:02:32.409Z,1.9
2018-12-30T04:03:22.420Z,1.9
2018-12-30T04:04:12.471Z,2
2018-12-30T04:05:02.837Z,2
2018-12-30T04:05:52.318Z,1.9
2018-12-30T04:06:42.377Z,1.9
2018-12-30T04:07:32.456Z,1.9
2018-12-30T04:08:22.491Z,1.9
2018-12-30T04:09:12.672Z,1.9
2018-12-30T04:10:03.132Z,1.9
2018-12-30T04:10:52.950Z,1.9
2018-12-30T04:11:42.999Z,1.9
2018-12-30T04:12:32.484Z,1.9
2018-12-30T04:13:23.880Z,1.9
2018-12-30T04:14:13.448Z,1.9
2018-12-30T04:15:03.229Z,1.9
2018-12-30T04:15:53.311Z,1.9
2018-12-30T04:16:43.371Z,1.9
2018-12-30T04:17:33.389Z,1.8
2018-12-30T04:18:23.738Z,1.9
2018-12-30T04:19:13.778Z,1.8
2018-12-30T04:20:03.568Z,1.9
2018-12-30T04:20:53.075Z,1.9
2018-12-30T04:21:43.675Z,1.9
2018-12-30T04:22:35.501Z,1.9
2018-12-30T04:23:23.523Z,1.9
2018-12-30T04:24:13.584Z,1.9
2018-12-30T04:25:04.481Z,1.9
2018-12-30T04:25:54.611Z,1.9
2018-12-30T04:26:44.303Z,1.9
2018-12-30T04:27:33.785Z,1.9
2018-12-30T04:28:23.861Z,1.9
2018-12-30T04:29:14.465Z,1.9
2018-12-30T04:30:04.255Z,1.9
2018-12-30T04:30:54.391Z,1.9
2018-12-30T04:31:44.641Z,1.9
2018-12-30T04:32:34.422Z,1.9
2018-12-30T04:33:24.193Z,1.9
2018-12-30T04:34:14.829Z,1.9
2018-12-30T04:35:04.386Z,1.9
2018-12-30T04:35:54.660Z,1.9
2018-12-30T04:36:44.423Z,1.9
2018-12-30T04:37:35.045Z,1.9
2018-12-30T04:38:24.865Z,1.9
2018-12-30T04:39:14.923Z,1.9
2018-12-30T04:40:04.955Z,1.9
2018-12-30T04:40:55.279Z,1.9
2018-12-30T04:41:45.057Z,1.9
2018-12-30T04:42:35.480Z,1.9
2018-12-30T04:43:25.261Z,1.9
2018-12-30T04:44:15.220Z,2
2018-12-30T04:45:05.280Z,2
2018-12-30T05:02:27.735Z,2.1
2018-12-30T05:03:18.350Z,2
2018-12-30T05:04:08.350Z,2.1
2018-12-30T05:04:57.853Z,2
2018-12-30T05:05:48.031Z,2
2018-12-30T05:06:38.531Z,1.9
2018-12-30T05:07:29.174Z,1.9
2018-12-30T05:08:18.624Z,1.9
2018-12-30T05:09:08.676Z,1.9
2018-12-30T05:09:58.737Z,1.9
2018-12-30T05:10:48.789Z,1.9
2018-12-30T05:11:38.855Z,2
2018-12-30T05:12:28.626Z,1.9
2018-12-30T05:13:18.965Z,2
2018-12-30T05:14:08.483Z,2
2018-12-30T05:14:58.828Z,1.9
2018-12-30T05:15:48.309Z,1.9
2018-12-30T05:16:39.198Z,1.9
2018-12-30T05:17:28.983Z,1.9
2018-12-30T05:18:18.486Z,1.9
2018-12-30T05:19:09.083Z,1.9
2018-12-30T05:19:58.601Z,1.9
2018-12-30T05:20:49.239Z,1.8
2018-12-30T05:21:39.245Z,1.8
2018-12-30T05:22:36.432Z,1.8
2018-12-30T05:23:19.102Z,1.8
2018-12-30T05:24:09.686Z,1.8
2018-12-30T05:24:59.747Z,1.8
2018-12-30T05:25:49.815Z,1.8
2018-12-30T05:26:39.597Z,1.8
2018-12-30T05:27:29.385Z,1.9
2018-12-30T05:28:20.215Z,1.8
2018-12-30T05:29:09.488Z,1.8
2018-12-30T05:30:00.251Z,1.8
2018-12-30T05:30:49.890Z,1.9
2018-12-30T05:31:39.452Z,1.9
2018-12-30T05:32:30.262Z,1.9
2018-12-30T05:33:20.572Z,1.9
2018-12-30T05:34:10.112Z,1.9
2018-12-30T05:34:59.912Z,1.9
2018-12-30T05:35:51.762Z,1.9
2018-12-30T05:36:40.016Z,1.9
2018-12-30T05:37:30.444Z,1.9
2018-12-30T05:38:20.389Z,1.9
2018-12-30T05:39:10.749Z,1.9
2018-12-30T05:40:00.770Z,1.9
2018-12-30T05:40:50.861Z,1.9
2018-12-30T05:41:40.389Z,1.9
2018-12-30T05:42:30.689Z,1.9
2018-12-30T05:43:20.999Z,1.9
2018-12-30T05:44:11.398Z,1.8
2018-12-30T05:45:00.956Z,1.8
2018-12-30T05:45:51.207Z,1.8
2018-12-30T05:46:40.966Z,1.8
2018-12-30T05:47:31.058Z,1.8
2018-12-30T05:48:21.365Z,1.8
2018-12-30T05:49:10.591Z,1.8
2018-12-30T05:50:01.602Z,1.8
2018-12-30T05:50:51.038Z,1.8
2018-12-30T05:51:40.768Z,1.8
2018-12-30T05:52:31.088Z,1.8
2018-12-30T05:53:21.951Z,1.8
2018-12-30T05:54:11.840Z,1.7
2018-12-30T05:55:02.118Z,1.7
2018-12-30T05:55:51.320Z,1.7
2018-12-30T05:56:41.657Z,1.7
2018-12-30T05:57:31.705Z,1.7
2018-12-30T05:58:21.770Z,1.7
2018-12-30T05:59:11.540Z,1.7
2018-12-30T06:00:01.605Z,1.7
2018-12-30T06:00:51.393Z,1.6
2018-12-30T06:01:41.737Z,1.6
2018-12-30T06:02:32.067Z,1.7
2018-12-30T06:03:21.850Z,1.7
2018-12-30T06:04:12.160Z,1.8
2018-12-30T06:05:03.094Z,1.8
2018-12-30T06:05:52.580Z,1.8
2018-12-30T06:06:42.594Z,1.8
2018-12-30T06:07:32.404Z,1.7
2018-12-30T06:08:22.733Z,1.8
2018-12-30T06:09:12.511Z,1.8
2018-12-30T06:10:02.714Z,1.8
2018-12-30T06:10:52.350Z,1.7
2018-12-30T06:11:42.399Z,1.7
2018-12-30T06:12:33.006Z,1.7
2018-12-30T06:13:23.078Z,1.7
2018-12-30T06:14:13.131Z,1.7
2018-12-30T06:15:03.249Z,1.6
2018-12-30T06:15:53.224Z,1.7
2018-12-30T06:16:43.016Z,1.7
2018-12-30T06:17:33.073Z,1.6
2018-12-30T06:18:22.851Z,1.6
2018-12-30T06:19:12.897Z,1.6
2018-12-30T06:20:03.257Z,1.6
2018-12-30T06:20:53.291Z,1.6
2018-12-30T06:21:43.641Z,1.6
2018-12-30T06:22:33.416Z,1.6
2018-12-30T06:23:23.756Z,1.6
2018-12-30T06:24:13.808Z,1.6
2018-12-30T06:25:03.079Z,1.6
2018-12-30T06:25:54.260Z,1.6
2018-12-30T06:26:44.037Z,1.7
2018-12-30T06:27:34.033Z,1.7
2018-12-30T06:28:23.802Z,1.8
2018-12-30T06:29:14.137Z,1.8
2018-12-30T06:30:03.941Z,1.8
2018-12-30T06:30:53.952Z,1.9
2018-12-30T06:31:44.045Z,1.9
2018-12-30T06:32:34.092Z,1.9
2018-12-30T06:33:24.491Z,1.9
2018-12-30T06:34:14.220Z,1.9
2018-12-30T06:35:04.047Z,1.9
2018-12-30T06:35:54.305Z,1.9
2018-12-30T06:36:44.137Z,1.9
2018-12-30T06:37:34.712Z,1.9
2018-12-30T06:38:24.559Z,1.9
2018-12-30T06:39:14.813Z,1.9
2018-12-30T06:40:12.699Z,1.9
2018-12-30T06:40:54.139Z,1.9
2018-12-30T06:41:44.692Z,1.9
2018-12-30T06:42:35.046Z,1.9
2018-12-30T06:43:25.099Z,1.9
2018-12-30T06:44:15.237Z,1.9
2018-12-30T06:45:05.241Z,1.9
2018-12-30T06:45:55.001Z,1.9
2018-12-30T06:46:45.042Z,1.9
2018-12-30T06:47:35.119Z,1.9
2018-12-30T06:48:24.892Z,2
2018-12-30T06:49:15.531Z,2
2018-12-30T06:50:05.548Z,2
2018-12-30T06:50:55.366Z,2.1
2018-12-30T06:51:45.676Z,2.1
2018-12-30T06:52:35.531Z,2.1
2018-12-30T06:53:25.534Z,2.1
2018-12-30T06:54:15.926Z,2.1
2018-12-30T06:55:05.626Z,2.1
2018-12-30T06:55:56.011Z,2.1
2018-12-30T06:56:45.201Z,2.1
2018-12-30T06:57:36.076Z,2.1
2018-12-30T06:58:25.070Z,2.1
2018-12-30T06:59:15.636Z,2.1
2018-12-30T07:00:05.970Z,2.1
2018-12-30T07:00:56.018Z,2.2
2018-12-30T07:01:46.331Z,2.2
2018-12-30T07:02:36.410Z,2.2
2018-12-30T07:03:26.481Z,2.3
2018-12-30T07:04:15.441Z,2.3
2018-12-30T07:05:06.316Z,2.3
2018-12-30T07:05:56.643Z,2.3
2018-12-30T07:06:46.466Z,2.3
2018-12-30T07:07:36.478Z,2.3
2018-12-30T07:08:26.548Z,2.4
2018-12-30T07:09:16.600Z,2.4
2018-12-30T07:10:06.940Z,2.4
2018-12-30T07:10:56.963Z,2.4
2018-12-30T07:11:46.765Z,2.4
2018-12-30T07:12:36.534Z,2.4
2018-12-30T07:13:27.134Z,2.4
2018-12-30T07:14:16.937Z,2.4
2018-12-30T07:15:06.730Z,2.4
2018-12-30T07:15:57.547Z,2.4
2018-12-30T07:16:47.375Z,2.4
2018-12-30T07:17:37.437Z,2.5
2018-12-30T07:18:27.580Z,2.5
2018-12-30T07:19:16.744Z,2.6
2018-12-30T07:20:07.349Z,2.6
2018-12-30T07:20:57.092Z,2.6
2018-12-30T07:21:47.727Z,2.6
2018-12-30T07:22:37.792Z,2.6
2018-12-30T07:23:27.562Z,2.6
2018-12-30T07:24:17.892Z,2.6
2018-12-30T07:25:07.662Z,2.6
2018-12-30T07:25:58.024Z,2.6
2018-12-30T07:26:47.519Z,2.6
2018-12-30T07:27:37.839Z,2.7
2018-12-30T07:28:27.619Z,2.7
2018-12-30T07:29:17.969Z,2.7
2018-12-30T07:30:08.009Z,2.7
2018-12-30T07:30:58.339Z,2.8
2018-12-30T07:31:48.145Z,2.8
2018-12-30T07:32:38.195Z,2.8
2018-12-30T07:33:27.694Z,2.8
2018-12-30T07:34:18.026Z,2.8
2018-12-30T07:35:08.631Z,2.8
2018-12-30T07:35:58.694Z,2.8
2018-12-30T07:36:48.189Z,2.8
2018-12-30T07:37:38.809Z,2.8
2018-12-30T07:38:28.876Z,2.8
2018-12-30T07:39:18.912Z,2.8
2018-12-30T07:40:08.709Z,2.8
2018-12-30T07:40:59.019Z,2.8
2018-12-30T07:41:48.526Z,2.8
2018-12-30T07:42:39.138Z,2.8
2018-12-30T07:43:29.209Z,2.8
2018-12-30T07:44:19.054Z,2.8
2018-12-30T07:45:08.782Z,2.8
2018-12-30T07:45:59.097Z,2.8
2018-12-30T07:46:49.408Z,2.8
2018-12-30T07:47:38.644Z,2.8
2018-12-30T07:48:29.549Z,2.8
2018-12-30T07:49:18.789Z,2.8
2018-12-30T07:50:09.124Z,2.8
2018-12-30T07:50:59.161Z,2.9
2018-12-30T07:51:49.542Z,2.9
2018-12-30T07:52:40.133Z,2.9
2018-12-30T07:53:29.884Z,2.9
2018-12-30T07:54:19.421Z,2.9
2018-12-30T07:55:09.807Z,2.9
2018-12-30T07:55:59.506Z,2.9
2018-12-30T07:56:49.561Z,2.9
2018-12-30T07:57:40.144Z,2.9
2018-12-30T07:58:29.978Z,2.9
2018-12-30T07:59:20.091Z,2.9
2018-12-30T08:00:10.341Z,2.9
2018-12-30T08:01:00.126Z,2.9
2018-12-30T08:01:50.460Z,2.9
2018-12-30T08:02:40.236Z,2.9
2018-12-30T08:03:30.521Z,2.9
2018-12-30T08:04:20.356Z,2.9
2018-12-30T08:05:10.416Z,2.9
2018-12-30T08:06:00.747Z,3
2018-12-30T08:06:50.260Z,3
2018-12-30T08:07:40.303Z,2.9
2018-12-30T08:08:30.623Z,3
2018-12-30T08:09:20.146Z,3
2018-12-30T08:10:10.761Z,3
2018-12-30T08:11:01.201Z,3
2018-12-30T08:11:50.870Z,3.1
2018-12-30T08:12:41.200Z,3.1
2018-12-30T08:13:31.008Z,3.1
2018-12-30T08:14:21.038Z,3.1
2018-12-30T08:15:11.093Z,3.1
2018-12-30T08:16:01.160Z,3.1
2018-12-30T08:16:51.475Z,3.2
2018-12-30T08:17:41.563Z,3.2
2018-12-30T08:18:31.375Z,3.2
2018-12-30T08:19:21.101Z,3.2
2018-12-30T08:20:11.422Z,3.2
2018-12-30T08:21:01.488Z,3.2
2018-12-30T08:21:51.824Z,3.3
2018-12-30T08:22:41.893Z,3.2
2018-12-30T08:23:31.091Z,3.3
2018-12-30T08:24:22.010Z,3.3
2018-12-30T08:25:11.757Z,3.3
2018-12-30T08:26:01.815Z,3.3
2018-12-30T08:26:52.160Z,3.3
2018-12-30T08:27:42.310Z,3.4
2018-12-30T08:28:32.510Z,3.4
2018-12-30T08:29:22.307Z,3.4
2018-12-30T08:30:11.837Z,3.4
2018-12-30T08:31:01.617Z,3.4
2018-12-30T08:31:52.582Z,3.4
2018-12-30T08:32:42.544Z,3.5
2018-12-30T08:33:32.580Z,3.4
2018-12-30T08:34:22.677Z,3.5
2018-12-30T08:35:12.447Z,3.5
2018-12-30T08:36:02.504Z,3.5
2018-12-30T08:36:52.579Z,3.6
2018-12-30T08:37:42.897Z,3.6
2018-12-30T08:38:33.202Z,3.6
2018-12-30T08:39:22.182Z,3.6
2018-12-30T08:40:12.796Z,3.6
2018-12-30T08:41:04.366Z,3.6
2018-12-30T08:41:52.929Z,3.6
2018-12-30T08:42:42.677Z,3.6
2018-12-30T08:43:32.455Z,3.6
2018-12-30T08:44:23.373Z,3.7
2018-12-30T08:45:12.859Z,3.7
2018-12-30T08:46:02.935Z,3.7
2018-12-30T08:46:52.985Z,3.8
2018-12-30T08:47:43.291Z,3.8
2018-12-30T08:48:33.371Z,3.8
2018-12-30T08:49:23.418Z,3.8
2018-12-30T08:50:13.741Z,3.8
2018-12-30T08:51:03.542Z,3.8
2018-12-30T08:51:53.638Z,3.7
2018-12-30T08:52:44.173Z,3.8
2018-12-30T08:53:33.774Z,3.8
2018-12-30T08:54:23.981Z,3.8
2018-12-30T08:55:13.808Z,3.8
2018-12-30T08:56:03.353Z,3.8
2018-12-30T08:56:54.196Z,3.8
2018-12-30T08:57:44.508Z,3.8
2018-12-30T08:58:34.268Z,3.7
2018-12-30T08:59:24.091Z,3.8
2018-12-30T09:00:13.915Z,3.8
2018-12-30T09:01:04.223Z,3.8
2018-12-30T09:16:52.248Z,3.7
2018-12-30T09:17:42.032Z,3.7
2018-12-30T09:18:32.592Z,3.7
2018-12-30T09:19:22.195Z,3.7
2018-12-30T09:20:12.418Z,3.7
2018-12-30T09:21:02.507Z,3.7
2018-12-30T09:21:53.052Z,3.7
2018-12-30T09:22:42.647Z,3.8
2018-12-30T09:23:39.984Z,3.8
2018-12-30T09:24:23.228Z,3.9
2018-12-30T09:25:13.044Z,3.9
2018-12-30T09:26:02.831Z,3.9
2018-12-30T09:26:53.162Z,3.9
2018-12-30T09:27:43.266Z,3.8
2018-12-30T09:28:32.704Z,3.8
2018-12-30T09:29:23.016Z,3.8
2018-12-30T09:30:13.382Z,3.8
2018-12-30T09:31:02.612Z,3.8
2018-12-30T09:31:52.942Z,3.7
2018-12-30T09:32:43.527Z,3.6
2018-12-30T09:33:33.340Z,3.6
2018-12-30T09:34:23.386Z,3.7
2018-12-30T09:35:13.437Z,3.6
2018-12-30T09:36:03.244Z,3.6
2018-12-30T09:36:55.469Z,3.6
2018-12-30T09:37:43.316Z,3.6
2018-12-30T09:38:33.960Z,3.6
2018-12-30T09:39:23.171Z,3.6
2018-12-30T09:40:14.046Z,3.5
2018-12-30T09:41:03.938Z,3.5
2018-12-30T09:41:54.191Z,3.5
2018-12-30T09:42:44.191Z,3.4
2018-12-30T09:43:34.296Z,3.5
2018-12-30T09:44:24.349Z,3.4
2018-12-30T09:45:13.588Z,3.4
2018-12-30T09:46:03.381Z,3.4
2018-12-30T09:46:54.228Z,3.4
2018-12-30T09:47:44.581Z,3.4
2018-12-30T09:48:36.596Z,3.4
2018-12-30T09:49:24.695Z,3.4
2018-12-30T09:50:14.483Z,3.5
2018-12-30T09:51:04.240Z,3.4
2018-12-30T09:51:54.583Z,3.4
2018-12-30T09:52:44.910Z,3.4
2018-12-30T09:53:34.426Z,3.4
2018-12-30T09:54:24.495Z,3.6
2018-12-30T09:55:15.083Z,3.6
2018-12-30T09:56:05.135Z,3.5
2018-12-30T09:56:54.905Z,3.5
2018-12-30T09:57:45.482Z,3.4
2018-12-30T09:58:35.087Z,3.4
2018-12-30T09:59:25.185Z,3.4
2018-12-30T10:00:15.438Z,3.5
2018-12-30T10:01:05.205Z,3.5
2018-12-30T10:01:54.448Z,3.5
2018-12-30T10:02:45.612Z,3.5
2018-12-30T10:03:35.115Z,3.5
2018-12-30T10:04:25.172Z,3.5
2018-12-30T10:05:15.757Z,3.5
2018-12-30T10:06:05.280Z,3.4
2018-12-30T10:06:55.322Z,3.4
2018-12-30T10:07:45.660Z,3.5
2018-12-30T10:08:35.990Z,3.4
2018-12-30T10:09:25.869Z,3.4
2018-12-30T10:10:15.573Z,3.4
2018-12-30T10:11:06.162Z,3.5
2018-12-30T10:11:55.752Z,3.6
2018-12-30T10:12:46.007Z,3.6
2018-12-30T10:13:36.057Z,3.6
2018-12-30T10:14:26.652Z,3.6
2018-12-30T10:15:15.896Z,3.6
2018-12-30T10:16:06.246Z,3.5
2018-12-30T10:16:56.589Z,3.6
2018-12-30T10:17:46.356Z,3.5
2018-12-30T10:18:36.437Z,3.6
2018-12-30T10:19:25.887Z,3.5
2018-12-30T10:20:15.703Z,3.5
2018-12-30T10:21:06.939Z,3.6
2018-12-30T10:21:56.359Z,3.5
2018-12-30T10:22:46.511Z,3.5
2018-12-30T10:23:36.756Z,3.6
2018-12-30T10:24:26.536Z,3.6
2018-12-30T10:25:16.614Z,3.6
2018-12-30T10:26:07.211Z,3.5
2018-12-30T10:26:56.706Z,3.6
2018-12-30T10:27:47.334Z,3.6
2018-12-30T10:28:37.344Z,3.5
2018-12-30T10:29:27.403Z,3.4
2018-12-30T10:30:17.198Z,3.3
2018-12-30T10:31:07.264Z,3.3
2018-12-30T10:31:57.323Z,3.3
2018-12-30T10:32:47.469Z,3.2
2018-12-30T10:33:37.713Z,3.2
2018-12-30T10:34:27.851Z,3.2
2018-12-30T10:35:17.818Z,3.2
2018-12-30T10:36:07.323Z,3.2
2018-12-30T10:36:57.400Z,3.3
2018-12-30T10:37:47.998Z,3.2
2018-12-30T10:38:37.785Z,3.2
2018-12-30T10:39:28.117Z,3.2
2018-12-30T10:40:18.178Z,3.2
2018-12-30T10:41:07.673Z,3.3
2018-12-30T10:42:00.142Z,3.4
2018-12-30T10:42:48.340Z,3.3
2018-12-30T10:43:38.185Z,3.4
2018-12-30T10:44:28.173Z,3.3
2018-12-30T10:45:18.240Z,3.3
2018-12-30T10:46:08.331Z,3.3
2018-12-30T10:46:58.609Z,3.3
2018-12-30T10:47:48.402Z,3.3
2018-12-30T10:48:38.714Z,3.3
2018-12-30T10:49:29.035Z,3.3
2018-12-30T10:50:19.157Z,3.3
2018-12-30T10:51:08.400Z,3.3
2018-12-30T10:51:59.212Z,3.4
2018-12-30T10:52:48.459Z,3.4
2018-12-30T10:53:38.808Z,3.4
2018-12-30T10:54:28.874Z,3.4
2018-12-30T10:55:18.922Z,3.4
2018-12-30T10:56:09.249Z,3.4
2018-12-30T10:56:59.064Z,3.4
2018-12-30T10:57:48.299Z,3.4
2018-12-30T10:58:39.154Z,3.4
2018-12-30T10:59:29.199Z,3.4
2018-12-30T11:00:19.294Z,3.4
2018-12-30T11:01:09.299Z,3.5
2018-12-30T11:01:59.108Z,3.4
2018-12-30T11:02:49.704Z,3.4
2018-12-30T11:03:39.206Z,3.3
2018-12-30T11:04:29.806Z,3.4
2018-12-30T11:05:19.349Z,3.4
2018-12-30T11:06:09.113Z,3.3
2018-12-30T11:06:59.721Z,3.3
2018-12-30T11:07:49.503Z,3.3
2018-12-30T11:08:39.548Z,3.4
2018-12-30T11:09:30.185Z,3.3
2018-12-30T11:10:19.948Z,3.3
2018-12-30T11:11:10.008Z,3.3
2018-12-30T11:12:00.346Z,3.3
2018-12-30T11:12:49.831Z,3.3
2018-12-30T11:13:40.448Z,3.2
2018-12-30T11:14:29.943Z,3.3
2018-12-30T11:15:20.266Z,3.3
2018-12-30T11:16:10.321Z,3.3
2018-12-30T11:17:00.671Z,3.2
2018-12-30T11:17:50.195Z,3.3
2018-12-30T11:18:40.493Z,3.4
2018-12-30T11:19:30.075Z,3.3
2018-12-30T11:20:20.920Z,3.3
2018-12-30T11:21:10.955Z,3.3
2018-12-30T11:22:00.742Z,3.3
2018-12-30T11:22:51.156Z,3.3
2018-12-30T11:23:41.123Z,3.3
2018-12-30T11:24:32.878Z,3.1
2018-12-30T11:25:21.260Z,3.2
2018-12-30T11:26:11.282Z,3.2
2018-12-30T11:27:01.359Z,3.2
2018-12-30T11:27:51.392Z,3.2
2018-12-30T11:28:41.205Z,3.3
2018-12-30T11:29:31.490Z,3.2
2018-12-30T11:30:21.106Z,3.2
2018-12-30T11:31:10.787Z,3.3
2018-12-30T11:32:01.187Z,3.3
2018-12-30T11:32:51.188Z,3.3
2018-12-30T11:33:41.274Z,3.3
2018-12-30T11:34:31.026Z,3.3
2018-12-30T11:35:21.914Z,3.3
2018-12-30T11:36:11.694Z,3.3
2018-12-30T11:37:01.491Z,3.3
2018-12-30T11:37:51.772Z,3.3
2018-12-30T11:38:41.879Z,3.4
2018-12-30T11:39:31.709Z,3.4
2018-12-30T11:40:21.974Z,3.4
2018-12-30T11:41:12.314Z,3.4
2018-12-30T11:42:01.836Z,3.4
2018-12-30T11:42:52.423Z,3.4
2018-12-30T11:43:42.200Z,3.4
2018-12-30T11:44:32.530Z,3.4
2018-12-30T11:45:22.603Z,3.3
2018-12-30T11:46:12.900Z,3.3
2018-12-30T11:47:04.659Z,3.3
2018-12-30T11:47:52.838Z,3.3
2018-12-30T11:48:43.083Z,3.3
2018-12-30T11:49:32.354Z,3.3
2018-12-30T11:50:22.653Z,3.3
2018-12-30T11:51:12.733Z,3.3
2018-12-30T11:52:02.510Z,3.4
2018-12-30T11:52:52.583Z,3.4
2018-12-30T11:53:42.913Z,3.4
2018-12-30T11:54:32.945Z,3.5
2018-12-30T11:55:23.271Z,3.5
2018-12-30T11:56:13.045Z,3.5
2018-12-30T11:57:03.390Z,3.4
2018-12-30T11:57:53.175Z,3.4
2018-12-30T11:58:43.240Z,3.3
2018-12-30T11:59:33.288Z,3.3
2018-12-30T12:00:23.395Z,3.3
2018-12-30T12:01:13.132Z,3.3
2018-12-30T12:02:03.242Z,3.3
2018-12-30T12:02:53.808Z,3.3
2018-12-30T12:03:43.567Z,3.3
2018-12-30T12:04:33.890Z,3.3
2018-12-30T12:05:23.969Z,3.3
2018-12-30T12:06:14.001Z,3.3
2018-12-30T12:07:04.047Z,3.3
2018-12-30T12:07:53.575Z,3.3
2018-12-30T12:08:43.924Z,3.3
2018-12-30T12:09:33.400Z,3.4
2018-12-30T12:10:23.736Z,3.4
2018-12-30T12:11:13.840Z,3.4
2018-12-30T12:12:04.132Z,3.4
2018-12-30T12:12:54.187Z,3.4
2018-12-30T12:13:44.774Z,3.4
2018-12-30T12:14:34.304Z,3.4
2018-12-30T12:15:24.374Z,3.4
2018-12-30T12:16:14.429Z,3.4
2018-12-30T12:17:05.036Z,3.4
2018-12-30T12:17:54.839Z,3.5
2018-12-30T12:18:44.584Z,3.5
2018-12-30T12:19:34.636Z,3.6
2018-12-30T12:20:24.416Z,3.6
2018-12-30T12:21:14.469Z,3.6
2018-12-30T12:22:04.586Z,3.6